Terminal Aerodrome Forecast
Issued by NWS Cleveland, OH

Home | Current Version | Previous Version | Graphics & Text | Print | Product List | Glossary On
Versions: 1 2 3 4 5 6 7 8 9 10 11 12 13 14 15 16 17
781
FTUS41 KCLE 151137
TAFCAK
TAF
KCAK 151137Z 1512/1612 20003KT P6SM SCT250
      TEMPO 1512/1514 4SM BR
     FM151800 27006KT P6SM BKN060
     FM152300 30006KT P6SM BKN250
     FM160600 VRB03KT P6SM SCT150=

USA.gov is the U.S. government's official web portal to all federal, state and local government web resources and services.